Chicago, Illinois
Current Conditions -  °F | °C
As of 5:53 AM on Wednesday 28 Jan 2015 (Local Time) from KMDW Reporting Station
Clear Clear  
Wind Chill: -8°   Ceiling: Unl
Heat Index: -4°   Visibility: 10mi
Dew Point: -8°   Wind: 5mph
Humidity: 75%   Direction: 170°S
Pressure: 30.29"   Gusts: NA
Location:  41.88°N, 87.63°W
Report Text: KMDW 281153Z 17004KT 10SM CLR M04/M08 A3029 RMK AO2 SLP270 T10441083 11028 21044 53003
Loading
Personal Weather Stations






























Interactive Weather Map New forecast layout! Learn more

10-Day Weather Forecast

Advertisements
Track Severe Weather on mobile